N3111Z KCNO-KCNO

Flight info

Callsign N3111Z
Flight time 0h 11m
Altitude 11000
Route HEMET BANDS SETER5
Aircraft PA24/L-DFGIORVY/S

Departure

Time 2026-05-04 04:09
Airport Chino Airport (KCNO)

Arrival

Time 2026-05-04 04:20
Airport Chino Airport (KCNO)
Time Latitude Longitude Altitude Speed Heading
2026-05-04 03:46 33.97864 -117.63535 636 ft 0 kts 310°
2026-05-04 03:50 33.97866 -117.63537 636 ft 0 kts 310°
2026-05-04 03:52 33.97870 -117.63541 636 ft 4 kts 341°
2026-05-04 03:52 33.97885 -117.63522 637 ft 2 kts 59°
2026-05-04 03:52 33.97921 -117.63465 638 ft 13 kts 70°
2026-05-04 03:52 33.97918 -117.63436 638 ft 0 kts 139°
2026-05-04 03:53 33.97895 -117.63412 638 ft 8 kts 138°
2026-05-04 03:53 33.97926 -117.63357 638 ft 11 kts 56°
2026-05-04 03:53 33.97973 -117.63261 637 ft 14 kts 98°
2026-05-04 03:53 33.97898 -117.63166 638 ft 18 kts 134°
2026-05-04 03:54 33.97812 -117.63090 640 ft 12 kts 174°
2026-05-04 03:54 33.97725 -117.63084 642 ft 13 kts 180°
2026-05-04 03:54 33.97634 -117.63087 644 ft 11 kts 195°
2026-05-04 03:54 33.97581 -117.63159 643 ft 12 kts 270°
2026-05-04 03:55 33.97582 -117.63189 643 ft 0 kts 262°
2026-05-04 04:05 33.97582 -117.63190 643 ft 2 kts 261°
2026-05-04 04:06 33.97571 -117.63331 639 ft 31 kts 268°
2026-05-04 04:06 33.97569 -117.63709 632 ft 59 kts 271°
2026-05-04 04:06 33.97537 -117.64264 657 ft 68 kts 264°
2026-05-04 04:06 33.97470 -117.64789 734 ft 59 kts 260°
2026-05-04 04:07 33.97385 -117.65288 752 ft 62 kts 251°
2026-05-04 04:07 33.97114 -117.65609 816 ft 57 kts 201°
2026-05-04 04:07 33.96686 -117.65623 833 ft 66 kts 187°
2026-05-04 04:07 33.96208 -117.65587 874 ft 73 kts 182°
2026-05-04 04:08 33.95701 -117.65408 951 ft 79 kts 167°
2026-05-04 04:08 33.95191 -117.65153 988 ft 77 kts 145°
2026-05-04 04:08 33.95124 -117.64596 1039 ft 72 kts 60°
2026-05-04 04:08 33.95337 -117.63989 989 ft 87 kts 58°
2026-05-04 04:09 33.95636 -117.63352 1086 ft 84 kts 44°
2026-05-04 04:09 33.96066 -117.63006 1217 ft 69 kts 335°
2026-05-04 04:09 33.96394 -117.63335 1255 ft 62 kts 291°
2026-05-04 04:09 33.96558 -117.63839 1238 ft 66 kts 278°
2026-05-04 04:10 33.96673 -117.64421 1174 ft 78 kts 283°
2026-05-04 04:10 33.96719 -117.65019 1266 ft 66 kts 238°
2026-05-04 04:10 33.96284 -117.65224 1266 ft 76 kts 182°
2026-05-04 04:10 33.95694 -117.65267 1226 ft 87 kts 195°
2026-05-04 04:11 33.95226 -117.64981 1259 ft 85 kts 114°
2026-05-04 04:11 33.95006 -117.64296 1302 ft 89 kts 115°
2026-05-04 04:11 33.94825 -117.63581 1338 ft 91 kts 91°
2026-05-04 04:11 33.95163 -117.63059 1421 ft 79 kts 13°
2026-05-04 04:12 33.95699 -117.62874 1432 ft 79 kts
2026-05-04 04:12 33.96237 -117.62625 1439 ft 84 kts 13°
2026-05-04 04:12 33.96780 -117.62355 1493 ft 81 kts 13°
2026-05-04 04:12 33.97326 -117.62156 1555 ft 77 kts 344°
2026-05-04 04:13 33.97865 -117.62308 1551 ft 78 kts 334°
2026-05-04 04:13 33.98173 -117.62731 1617 ft 69 kts 280°
2026-05-04 04:13 33.98245 -117.63344 1607 ft 72 kts 272°
2026-05-04 04:13 33.98282 -117.63989 1584 ft 74 kts 272°
2026-05-04 04:14 33.98307 -117.64640 1545 ft 80 kts 268°
2026-05-04 04:14 33.98237 -117.65320 1522 ft 83 kts 265°
2026-05-04 04:14 33.98153 -117.66011 1505 ft 83 kts 243°
2026-05-04 04:14 33.97691 -117.66341 1538 ft 82 kts 184°
2026-05-04 04:15 33.97200 -117.66060 1580 ft 85 kts 130°
2026-05-04 04:15 33.96946 -117.65386 1579 ft 94 kts 125°
2026-05-04 04:15 33.96708 -117.64639 1569 ft 99 kts 104°
2026-05-04 04:15 33.96652 -117.63800 1589 ft 100 kts 94°
2026-05-04 04:16 33.96599 -117.62948 1555 ft 107 kts 99°
2026-05-04 04:16 33.96420 -117.62127 1650 ft 96 kts 104°
2026-05-04 04:16 33.96472 -117.61324 1577 ft 104 kts 47°
2026-05-04 04:16 33.97088 -117.61026 1597 ft 92 kts 360°
2026-05-04 04:17 33.97619 -117.61305 1514 ft 92 kts 284°
2026-05-04 04:17 33.97447 -117.61943 1407 ft 91 kts 206°
2026-05-04 04:17 33.96853 -117.62136 1417 ft 84 kts 200°
2026-05-04 04:17 33.96247 -117.62269 1306 ft 88 kts 178°
2026-05-04 04:18 33.95828 -117.61789 1254 ft 92 kts 110°
2026-05-04 04:18 33.95705 -117.61024 1200 ft 94 kts 83°
2026-05-04 04:18 33.96057 -117.60490 1222 ft 82 kts
2026-05-04 04:18 33.96586 -117.60328 1212 ft 76 kts
2026-05-04 04:19 33.97042 -117.60524 1140 ft 78 kts 323°
2026-05-04 04:19 33.97496 -117.60808 1142 ft 68 kts 310°
2026-05-04 04:19 33.97632 -117.61318 1009 ft 70 kts 270°
2026-05-04 04:19 33.97598 -117.61936 857 ft 75 kts 263°
2026-05-04 04:20 33.97575 -117.62557 747 ft 73 kts 270°
2026-05-04 04:20 33.97583 -117.63158 655 ft 70 kts 269°
2026-05-04 04:20 33.97576 -117.63645 634 ft 44 kts 270°
2026-05-04 04:20 33.97594 -117.63871 626 ft 10 kts 284°
2026-05-04 04:21 33.97597 -117.63898 626 ft 0 kts 287°
2026-05-04 04:21 33.97607 -117.63916 626 ft 5 kts 309°
2026-05-04 04:21 33.97650 -117.63926 625 ft 8 kts 350°
2026-05-04 04:21 33.97713 -117.63929 632 ft 10 kts
2026-05-04 04:22 33.97770 -117.63929 636 ft 6 kts
2026-05-04 04:22 33.97817 -117.63927 634 ft 8 kts
2026-05-04 04:22 33.97868 -117.63931 635 ft 7 kts 340°
2026-05-04 04:22 33.97898 -117.63962 635 ft 7 kts 294°
2026-05-04 04:23 33.97905 -117.64037 633 ft 11 kts 271°
2026-05-04 04:23 33.97905 -117.64080 632 ft 0 kts 270°